Darstellungsparameter: Aktuell verwendete Einstellungen:
Skalierung der Graphiken ... ?
xyx+y,   Skalierungsfaktor:      Skalierung: Modus: x, Faktor: 1
Darstellungszeitraum ... ?
Vom - - bis: - -   Zeitraum: 25.04.2010 - 24.04.2020
Min/Max/Avg-Anzeige ... ?
Zeige MMA aktuell
Zeige MMA Monat
Zeige MMA alles
Zeige --A aktuell
Zeige --A Monat
Zeige --A alles
Keine MMA-Anzeige
MMA:
Average (ber die Originaldaten)
MMA-Basis: 23.02.2003 - 25.04.2020
Quicknavigation für Darstellung... ?
Tage:      1T, 2T, 3T, 5T -1T -2T -3T -5T +1T +2T +3T +5T
Wochen: 1W, 2W, 3W -1W -2W -3W +1W +2W +3W
Monate: 1M, 3M, 6M -1M -3M -6M +1M +3M +6M
Jahre:    1J, 3J, 5J, 10J -1J -3J -5J -10J +1J +3J +5J +10J
Nutze für die Darstellung ... ?
Originaldaten oder ...
Mittelwerte Minima Maxima auf...
Stundenbasis Tagesbasis Wochenbasis
Monatsbasis Jahresbasis      Datenbasis: Mittelwerte auf Monatsbasis
Darstellen als:
Statistik (Auto) Statistik J:M      Darstellung:
Zur Graphik,    zurück zur Übersicht aller Sensoren.
 
Tabellarische Datenbersicht: ?
 
Sensor: Nr:Datum:Temp:Abs-Feuchte:Windchill:Wind:
Aussen-T/F 1 01-04-2010 00:00:00 11.72868 C 5.14 g/m*3 11.73 C 0 km/h
2 01-05-2010 00:00:00 12.94841 C 7.11 g/m*3 12.95 C 0 km/h
3 01-06-2010 00:00:00 19.98271 C 8.83 g/m*3 19.98 C 0 km/h
4 01-07-2010 00:00:00 23.10471 C 10.06 g/m*3 23.1 C 0 km/h
5 01-08-2010 00:00:00 18.81238 C 10.22 g/m*3 18.81 C 0 km/h
6 01-09-2010 00:00:00 14.44098 C 8.69 g/m*3 14.44 C 0 km/h
7 01-10-2010 00:00:00 10.01383 C 6.83 g/m*3 10.01 C 0 km/h
8 01-11-2010 00:00:00 6.37202 C 5.72 g/m*3 6.37 C 0 km/h
9 01-12-2010 00:00:00 -1.81446 C 3.33 g/m*3 -1.81 C 0 km/h
10 01-01-2011 00:00:00 2.43723 C 4.53 g/m*3 2.44 C 0 km/h
11 01-02-2011 00:00:00 3.34179 C 4.35 g/m*3 3.34 C 0 km/h
12 01-03-2011 00:00:00 6.50695 C 4.65 g/m*3 6.51 C 0 km/h
13 01-04-2011 00:00:00 12.89077 C 6.67 g/m*3 12.89 C 0 km/h
14 01-05-2011 00:00:00 15.42354 C 6.84 g/m*3 15.42 C 0 km/h
15 01-06-2011 00:00:00 17.40752 C 9.25 g/m*3 17.41 C 0 km/h
16 01-07-2011 00:00:00 17.39503 C 9.03 g/m*3 17.4 C 0 km/h
17 01-08-2011 00:00:00 18.39148 C 10.56 g/m*3 18.39 C 0 km/h
18 01-09-2011 00:00:00 16.01184 C 9.47 g/m*3 16.01 C 0 km/h
19 01-10-2011 00:00:00 9.87443 C 7.12 g/m*3 9.87 C 0 km/h
20 01-11-2011 00:00:00 5.13267 C 5.8 g/m*3 5.13 C 0 km/h
21 01-12-2011 00:00:00 5.33333 C 5.82 g/m*3 4.18 C 5.77732 km/h
22 01-01-2012 00:00:00 4.20245 C 5.5 g/m*3 2.39 C 7.30497 km/h
23 01-02-2012 00:00:00 -0.24896 C 3.79 g/m*3 -1.99 C 5.25177 km/h
24 01-03-2012 00:00:00 8.52004 C 6.55 g/m*3 8.52 C 4.26789 km/h
25 01-04-2012 00:00:00 9.14843 C 6.64 g/m*3 8.75 C 5.1307 km/h
Sensor: Nr:Datum:Temp:Abs-Feuchte:Windchill:Wind:
Aussen-T/F 26 01-05-2012 00:00:00 15.25472 C 9.77 g/m*3 15.25 C 4.09853 km/h
27 01-06-2012 00:00:00 16.05053 C 11.03 g/m*3 16.05 C 4.00013 km/h
28 01-07-2012 00:00:00 17.72859 C 11.92 g/m*3 17.73 C 4.17325 km/h
29 01-08-2012 00:00:00 19.14243 C 12.32 g/m*3 19.14 C 3.44074 km/h
30 01-09-2012 00:00:00 13.74662 C 9.66 g/m*3 13.75 C 3.46337 km/h
31 01-10-2012 00:00:00 9.51337 C 8.09 g/m*3 9.51 C 3.4646 km/h
32 01-11-2012 00:00:00 6.4211 C 6.7 g/m*3 6.42 C 3.48415 km/h
33 01-12-2012 00:00:00 3.96629 C 5.68 g/m*3 2.43 C 6.29835 km/h
34 01-01-2013 00:00:00 2.16248 C 4.9 g/m*3 0.53 C 5.80819 km/h
35 01-02-2013 00:00:00 0.90825 C 4.44 g/m*3 0.91 C 4.73966 km/h
36 01-03-2013 00:00:00 2.27489 C 4.42 g/m*3 0.79 C 5.47379 km/h
37 01-04-2013 00:00:00 9.59169 C 6.58 g/m*3 8.95 C 6.20515 km/h
38 01-05-2013 00:00:00 12.31929 C 8.92 g/m*3 12.32 C 4.40264 km/h
39 01-06-2013 00:00:00 16.2181 C 10.95 g/m*3 16.22 C 4.94769 km/h
40 01-07-2013 00:00:00 20.04374 C 13.44 g/m*3 20.04 C 3.36961 km/h
41 01-08-2013 00:00:00 17.4935 C 12.33 g/m*3 17.49 C 2.0332 km/h
42 01-09-2013 00:00:00 14.18293 C 10.6 g/m*3 14.18 C 3.24054 km/h
43 01-10-2013 00:00:00 11.73689 C 9.59 g/m*3 11.74 C 2.51479 km/h
44 01-11-2013 00:00:00 6.26997 C 6.71 g/m*3 6.27 C 4.58038 km/h
45 01-12-2013 00:00:00 5.0276 C 6.09 g/m*3 4 C 5.28821 km/h
46 01-01-2014 00:00:00 5.29918 C 6.26 g/m*3 5.3 C 3.74913 km/h
47 01-02-2014 00:00:00 5.91916 C 6.15 g/m*3 4.89 C 5.67144 km/h
48 01-03-2014 00:00:00 7.98323 C 6.46 g/m*3 7.98 C 4.60447 km/h
49 01-04-2014 00:00:00 12.78205 C 8.41 g/m*3 12.78 C 4.48252 km/h
50 01-05-2014 00:00:00 13.9336 C 9.22 g/m*3 13.93 C 4.87058 km/h
Sensor: Nr:Datum:Temp:Abs-Feuchte:Windchill:Wind:
Aussen-T/F 51 01-06-2014 00:00:00 17.70175 C 10.73 g/m*3 17.7 C 4.61724 km/h
52 01-07-2014 00:00:00 20.17458 C 13.59 g/m*3 20.17 C 3.8342 km/h
53 01-08-2014 00:00:00 16.4643 C 12.02 g/m*3 16.46 C 2.88428 km/h
54 01-09-2014 00:00:00 15.50465 C 11.9 g/m*3 15.5 C 1.54977 km/h
55 01-10-2014 00:00:00 12.61647 C 10.35 g/m*3 12.62 C 1.9087 km/h
56 01-11-2014 00:00:00 7.86465 C 7.76 g/m*3 7.86 C 1.51348 km/h
57 01-12-2014 00:00:00 4.81205 C 6.1 g/m*3 3.16 C 7.12551 km/h
58 01-01-2015 00:00:00 3.72555 C 5.55 g/m*3 1.86 C 7.237 km/h
59 01-02-2015 00:00:00 3.05527 C 5.17 g/m*3 3.06 C 4.50666 km/h
60 01-03-2015 00:00:00 6.39693 C 6.15 g/m*3 5.28 C 6.16049 km/h
61 01-04-2015 00:00:00 10.36598 C 6.9 g/m*3 9.99 C 5.6218 km/h
62 01-05-2015 00:00:00 14.07531 C 8.87 g/m*3 14.08 C 4.63949 km/h
63 01-06-2015 00:00:00 17.29228 C 10.81 g/m*3 17.29 C 4.45188 km/h
64 01-07-2015 00:00:00 21.37994 C 12.75 g/m*3 21.38 C 5.86635 km/h
65 01-08-2015 00:00:00 20.33613 C 13.15 g/m*3 20.34 C 3.87033 km/h
66 01-09-2015 00:00:00 13.69299 C 10.13 g/m*3 13.69 C 2.94774 km/h
67 01-10-2015 00:00:00 9.51401 C 8.23 g/m*3 9.51 C 1.48259 km/h
68 01-11-2015 00:00:00 8.865 C 7.83 g/m*3 7.87 C 7.14152 km/h
69 01-12-2015 00:00:00 7.80433 C 7.53 g/m*3 7.8 C 4.54159 km/h
70 01-01-2016 00:00:00 3.98089 C 5.75 g/m*3 2.75 C 5.45761 km/h
71 01-02-2016 00:00:00 4.85946 C 5.82 g/m*3 3.18 C 7.23871 km/h
72 01-03-2016 00:00:00 5.35347 C 5.83 g/m*3 4.45 C 5.09736 km/h
73 01-04-2016 00:00:00 9.1925 C 6.93 g/m*3 8.62 C 5.72023 km/h
74 01-05-2016 00:00:00 14.42697 C 9.47 g/m*3 14.43 C 4.35057 km/h
75 01-06-2016 00:00:00 17.47186 C 12.74 g/m*3 17.47 C 3.24235 km/h
Sensor: Nr:Datum:Temp:Abs-Feuchte:Windchill:Wind:
Aussen-T/F 76 01-07-2016 00:00:00 19.3988 C 13.49 g/m*3 19.4 C 3.1753 km/h
77 01-08-2016 00:00:00 18.44104 C 12.77 g/m*3 18.44 C 3.05942 km/h
78 01-09-2016 00:00:00 17.14113 C 11.94 g/m*3 17.14 C 2.24039 km/h
79 01-10-2016 00:00:00 9.46091 C 8.42 g/m*3 9.46 C 1.72234 km/h
80 01-11-2016 00:00:00 5.51435 C 6.48 g/m*3 5.51 C 3.28757 km/h
81 01-12-2016 00:00:00 3.09223 C 5.52 g/m*3 3.09 C 3.37586 km/h
82 01-01-2017 00:00:00 -0.81853 C 4.17 g/m*3 -0.82 C 3.55448 km/h
83 01-02-2017 00:00:00 5.07645 C 5.99 g/m*3 4.06 C 5.28782 km/h
84 01-03-2017 00:00:00 8.9644 C 6.89 g/m*3 8.34 C 5.77527 km/h
85 01-04-2017 00:00:00 9.01126 C 6.37 g/m*3 8.58 C 5.18128 km/h
86 01-05-2017 00:00:00 15.43007 C 10.26 g/m*3 15.43 C 3.35974 km/h
87 01-06-2017 00:00:00 19.3085 C 12.22 g/m*3 19.31 C 4.6192 km/h
88 01-07-2017 00:00:00 19.40309 C 13.35 g/m*3 19.4 C 4.06978 km/h
89 01-08-2017 00:00:00 18.15116 C 13.41 g/m*3 18.15 C 2.04663 km/h
90 01-09-2017 00:00:00 13.52826 C 10.51 g/m*3 13.53 C 2.46147 km/h
91 01-10-2017 00:00:00 11.9519 C 9.61 g/m*3 11.95 C 3.78291 km/h
92 01-11-2017 00:00:00 6.29456 C 6.83 g/m*3 6.29 C 4.69471 km/h
93 01-12-2017 00:00:00 4.62593 C 6.07 g/m*3 3.38 C 5.75049 km/h
94 01-01-2018 00:00:00 6.22071 C 6.63 g/m*3 5.01 C 6.36804 km/h
95 01-02-2018 00:00:00 -0.11999 C 3.96 g/m*3 -0.12 C 4.59001 km/h
96 01-03-2018 00:00:00 4.77696 C 5.52 g/m*3 3.69 C 5.37273 km/h
97 01-04-2018 00:00:00 13.19043 C 8.63 g/m*3 13.19 C 4.20133 km/h
98 01-05-2018 00:00:00 16.37003 C 10.67 g/m*3 16.37 C 3.69387 km/h
99 01-06-2018 00:00:00 18.967 C 12.53 g/m*3 18.97 C 4.53634 km/h
100 01-07-2018 00:00:00 21.42659 C 12.39 g/m*3 21.43 C 4.11955 km/h
Sensor: Nr:Datum:Temp:Abs-Feuchte:Windchill:Wind:
Aussen-T/F 101 01-08-2018 00:00:00 20.34943 C 12.31 g/m*3 20.35 C 3.96984 km/h
102 01-09-2018 00:00:00 15.07657 C 10.05 g/m*3 15.08 C 2.81324 km/h
103 01-10-2018 00:00:00 11.07636 C 8.74 g/m*3 11.08 C 2.7653 km/h
104 01-11-2018 00:00:00 6.5436 C 6.84 g/m*3 6.54 C 1.90036 km/h
105 01-12-2018 00:00:00 5.47462 C 6.37 g/m*3 4.57 C 5.14704 km/h
106 01-01-2019 00:00:00 2.43693 C 5.17 g/m*3 0.66 C 6.31666 km/h
107 01-02-2019 00:00:00 4.63271 C 5.71 g/m*3 4.63 C 3.62237 km/h
108 01-03-2019 00:00:00 7.92933 C 6.64 g/m*3 6.5 C 8.32276 km/h
109 01-04-2019 00:00:00 10.85221 C 7.4 g/m*3 10.85 C 4.33999 km/h
110 01-05-2019 00:00:00 12.33311 C 8.53 g/m*3 12.33 C 4.44611 km/h
111 01-06-2019 00:00:00 20.40694 C 12.64 g/m*3 20.41 C 4.36668 km/h
112 01-07-2019 00:00:00 20.12832 C 12.01 g/m*3 20.13 C 4.35068 km/h
113 01-08-2019 00:00:00 19.47061 C 12.94 g/m*3 19.47 C 3.40195 km/h
114 01-09-2019 00:00:00 14.78313 C 10.18 g/m*3 14.78 C 3.65661 km/h
115 01-10-2019 00:00:00 11.57957 C 9.53 g/m*3 11.58 C 2.52258 km/h
116 01-11-2019 00:00:00 5.97003 C 6.74 g/m*3 5.97 C 2.68162 km/h
117 01-12-2019 00:00:00 4.99817 C 6.27 g/m*3 5 C 4.24479 km/h
118 01-01-2020 00:00:00 5.2294 C 6.26 g/m*3 5.23 C 4.46112 km/h
119 01-02-2020 00:00:00 6.71149 C 6.43 g/m*3 4.78 C 9.62326 km/h
120 01-03-2020 00:00:00 7.34168 C 5.99 g/m*3 6.06 C 7.29528 km/h
121 01-04-2020 00:00:00 11.69861 C 6.66 g/m*3 11.7 C 4.78924 km/h

Maximal/Minimal-Werte vom 23.02.2003 - 25.04.2020

Sensor Min Max Avg
Temp
(Aussen-T/F)
-16.4 °C
20-12-2009  01:30:01
40.4 °C
25-07-2019  16:20:00
11.1 °C

Die Daten stammen von einer Davis Vantage Pro 2 Wetter-Station und werden unter Linux mit der Software wview2wettercgi und aufbereitet. Alle Angaben erfolgen ohne Gewähr für ihre Vollständigkeit oder Richtigkeit.
Kontakt: Rainer Krienke krienke@uni-koblenz.de . Meine Webseiten an der Uni Koblenz oder privat.
Version: $Revision: 0.78 $